Chippewa County International Airport
KCIU : rendu visible

Aérodrome :











RETROUVEZ-NOUS SUR...

 
LOGIN :

S'inscrire | Disclaimer

   EN    FR    IT 

 









Légende :    VFR   VFR Marginal   IFR   IFR Intensif   IFR Très Intensif
Visi : 
Plafond : 
>= 8 km
>= 3000ft
5 à 8 km
1000 à 3000 ft
1500m à 5 km
500 à 1000 ft
800 à 1500m
200 à 500 ft
< 800m
< 200 ft
Symboles :   Orages  Brouillard  Fortes neiges  Fortes précipitations  Vent > 20 kt






- Altitude de l'aérodrome : 800 ft
- Code IATA : CIU


KCIU - Chippewa County International

DERNIER METAR :
  • 250247Z AUTO 22005KT 1SM BR BKN003 14/14 A2996 RMK AO2

METARs EXPIRÉS :
  • 250156Z AUTO 21003KT 10SM CLR 16/14 A2994 RMK AO2 SLP138 T01610144
  • 250056Z AUTO 15007KT 10SM CLR 18/15 A2991 RMK AO2 SLP129 T01780150
  • 242356Z AUTO 09007KT 10SM CLR 19/16 A2989 RMK AO2 SLP120 60000 T01940156 10206 20156 58009

TAF N/A
FIR KZMP / Amérique du Nord



MET'MAP, la Météo Aéronautique d'un coup d'oeil ! - Copyright ORBIFLY Décembre 2007 - Disclaimer

ORBIFLY MET'MAP TEAM :

Programmation & Développement : Alexandra Zaïnal
Sur une idée originale de : Baudouin d'Aumeries
Assistance à la programmation : Marc-Olivier Méhu
Soutien technique & logistique : Manuel Goepfert

Contact : metmap@orbifly.com




SOURCES & CREDITS :

   NOAA       Earth
Advisory